sensor_id;sensor_type;location;lat;lon;timestamp;pressure;altitude;pressure_sealevel;temperature;humidity
20897;BME280;10608;42.600;23.398;2024-03-23T00:53:59;84565.94;;;-138.15;56.38
20897;BME280;10608;42.600;23.398;2024-03-23T00:56:24;84571.91;;;-138.15;56.22
20897;BME280;10608;42.600;23.398;2024-03-23T00:58:50;84559.97;;;-138.15;55.43
20897;BME280;10608;42.600;23.398;2024-03-23T01:01:15;84573.91;;;-138.15;56.11
20897;BME280;10608;42.600;23.398;2024-03-23T01:03:41;84482.44;;;-138.15;56.35
20897;BME280;10608;42.600;23.398;2024-03-23T01:06:06;84607.69;;;-138.15;56.63
20897;BME280;10608;42.600;23.398;2024-03-23T01:08:32;84732.97;;;-138.15;56.84
20897;BME280;10608;42.600;23.398;2024-03-23T01:10:59;84613.66;;;-138.15;57.62
20897;BME280;10608;42.600;23.398;2024-03-23T01:13:25;84595.75;;;-138.15;58.34
20897;BME280;10608;42.600;23.398;2024-03-23T01:15:54;84589.81;;;-138.15;58.82
20897;BME280;10608;42.600;23.398;2024-03-23T01:18:20;84597.75;;;-138.15;59.66
20897;BME280;10608;42.600;23.398;2024-03-23T01:20:46;84601.72;;;-138.15;60.00
20897;BME280;10608;42.600;23.398;2024-03-23T01:23:12;84526.19;;;-138.15;60.67
20897;BME280;10608;42.600;23.398;2024-03-23T01:25:37;84647.47;;;-138.15;60.48
20897;BME280;10608;42.600;23.398;2024-03-23T01:28:03;84613.66;;;-138.15;60.04
20897;BME280;10608;42.600;23.398;2024-03-23T01:30:29;84631.56;;;-138.15;60.52
20897;BME280;10608;42.600;23.398;2024-03-23T01:32:55;84603.72;;;-138.15;60.60
20897;BME280;10608;42.600;23.398;2024-03-23T01:35:21;84635.53;;;-138.15;60.24
20897;BME280;10608;42.600;23.398;2024-03-23T01:37:46;84615.66;;;-138.15;59.47
20897;BME280;10608;42.600;23.398;2024-03-23T01:40:12;84629.56;;;-138.15;58.62
20897;BME280;10608;42.600;23.398;2024-03-23T01:42:40;84625.59;;;-138.15;58.45
20897;BME280;10608;42.600;23.398;2024-03-23T01:45:09;84591.78;;;-138.15;58.55
20897;BME280;10608;42.600;23.398;2024-03-23T01:47:37;84619.63;;;-138.15;58.53
20897;BME280;10608;42.600;23.398;2024-03-23T01:50:02;84609.69;;;-138.15;57.39
20897;BME280;10608;42.600;23.398;2024-03-23T01:52:28;84546.06;;;-138.15;57.59
20897;BME280;10608;42.600;23.398;2024-03-23T01:54:55;84625.59;;;-138.15;58.55
20897;BME280;10608;42.600;23.398;2024-03-23T01:57:21;84609.69;;;-138.15;59.57
20897;BME280;10608;42.600;23.398;2024-03-23T01:59:47;84645.47;;;-138.15;60.40
20897;BME280;10608;42.600;23.398;2024-03-23T02:02:13;84637.53;;;-138.15;59.78
20897;BME280;10608;42.600;23.398;2024-03-23T02:04:38;84631.56;;;-138.15;59.78
20897;BME280;10608;42.600;23.398;2024-03-23T02:07:05;84625.59;;;-138.15;59.59
20897;BME280;10608;42.600;23.398;2024-03-23T02:09:31;84657.41;;;-138.15;60.16
20897;BME280;10608;42.600;23.398;2024-03-23T02:11:57;84621.63;;;-138.15;59.19
20897;BME280;10608;42.600;23.398;2024-03-23T02:14:22;84647.47;;;-138.15;59.78
20897;BME280;10608;42.600;23.398;2024-03-23T02:16:48;84681.25;;;-138.15;60.92
20897;BME280;10608;42.600;23.398;2024-03-23T02:19:13;84677.28;;;-138.15;61.62
20897;BME280;10608;42.600;23.398;2024-03-23T02:21:38;84669.34;;;-138.15;60.99
20897;BME280;10608;42.600;23.398;2024-03-23T02:24:04;84645.47;;;-138.15;60.36
20897;BME280;10608;42.600;23.398;2024-03-23T02:26:29;84621.63;;;-138.15;60.12
20897;BME280;10608;42.600;23.398;2024-03-23T02:28:55;84629.56;;;-138.15;59.16
20897;BME280;10608;42.600;23.398;2024-03-23T02:31:20;84635.53;;;-138.15;59.09
20897;BME280;10608;42.600;23.398;2024-03-23T02:33:45;84649.44;;;-138.15;59.25
20897;BME280;10608;42.600;23.398;2024-03-23T02:36:11;84663.38;;;-138.15;60.35
20897;BME280;10608;42.600;23.398;2024-03-23T02:38:36;84669.34;;;-138.15;60.50
20897;BME280;10608;42.600;23.398;2024-03-23T02:41:05;84677.28;;;-138.15;60.71
20897;BME280;10608;42.600;23.398;2024-03-23T02:43:30;84631.56;;;-138.15;60.49
20897;BME280;10608;42.600;23.398;2024-03-23T02:45:56;84661.38;;;-138.15;61.12
20897;BME280;10608;42.600;23.398;2024-03-23T02:48:22;84653.44;;;-138.15;60.30
20897;BME280;10608;42.600;23.398;2024-03-23T02:50:48;84657.41;;;-138.15;59.91
20897;BME280;10608;42.600;23.398;2024-03-23T02:53:13;84647.47;;;-138.15;58.86
20897;BME280;10608;42.600;23.398;2024-03-23T02:55:38;84715.06;;;-138.15;57.66
20897;BME280;10608;42.600;23.398;2024-03-23T02:58:04;84659.38;;;-138.15;57.72
20897;BME280;10608;42.600;23.398;2024-03-23T03:00:29;84703.13;;;-138.15;57.62
20897;BME280;10608;42.600;23.398;2024-03-23T03:02:55;84659.38;;;-138.15;57.42
20897;BME280;10608;42.600;23.398;2024-03-23T03:05:20;84661.38;;;-138.15;57.41
20897;BME280;10608;42.600;23.398;2024-03-23T03:07:46;84705.13;;;-138.15;57.86
20897;BME280;10608;42.600;23.398;2024-03-23T03:10:11;84711.09;;;-138.15;58.77
20897;BME280;10608;42.600;23.398;2024-03-23T03:12:37;84685.25;;;-138.15;59.37
20897;BME280;10608;42.600;23.398;2024-03-23T03:15:04;84681.25;;;-138.15;59.42
20897;BME280;10608;42.600;23.398;2024-03-23T03:17:30;84701.16;;;-138.15;59.52
20897;BME280;10608;42.600;23.398;2024-03-23T03:19:55;84687.22;;;-138.15;59.70
20897;BME280;10608;42.600;23.398;2024-03-23T03:22:22;84693.19;;;-138.15;60.22
20897;BME280;10608;42.600;23.398;2024-03-23T03:24:47;84705.13;;;-138.15;60.94
20897;BME280;10608;42.600;23.398;2024-03-23T03:27:13;84736.94;;;-138.15;62.04
20897;BME280;10608;42.600;23.398;2024-03-23T03:29:38;84701.16;;;-138.15;62.66
20897;BME280;10608;42.600;23.398;2024-03-23T03:32:04;84732.97;;;-138.15;63.32
20897;BME280;10608;42.600;23.398;2024-03-23T03:34:30;84681.25;;;-138.15;63.74
20897;BME280;10608;42.600;23.398;2024-03-23T03:36:56;84691.19;;;-138.15;64.17
20897;BME280;10608;42.600;23.398;2024-03-23T03:39:22;84705.13;;;-138.15;64.65
20897;BME280;10608;42.600;23.398;2024-03-23T03:41:48;84707.09;;;-138.15;64.59
20897;BME280;10608;42.600;23.398;2024-03-23T03:44:14;84728.97;;;-138.15;64.96
20897;BME280;10608;42.600;23.398;2024-03-23T03:46:39;84721.03;;;-138.15;64.45
20897;BME280;10608;42.600;23.398;2024-03-23T03:49:04;84736.94;;;-138.15;64.21
20897;BME280;10608;42.600;23.398;2024-03-23T03:51:30;84721.03;;;-138.15;64.48
20897;BME280;10608;42.600;23.398;2024-03-23T03:53:56;84707.09;;;-138.15;63.61
20897;BME280;10608;42.600;23.398;2024-03-23T03:56:21;84732.97;;;-138.15;63.06
20897;BME280;10608;42.600;23.398;2024-03-23T03:58:47;84711.09;;;-138.15;62.78
20897;BME280;10608;42.600;23.398;2024-03-23T04:01:13;84711.09;;;-138.15;62.75
20897;BME280;10608;42.600;23.398;2024-03-23T04:03:38;84635.53;;;-138.15;62.71
20897;BME280;10608;42.600;23.398;2024-03-23T04:06:08;84738.91;;;-138.15;62.99
20897;BME280;10608;42.600;23.398;2024-03-23T04:08:34;84683.25;;;-138.15;62.58
20897;BME280;10608;42.600;23.398;2024-03-23T04:10:59;84715.06;;;-138.15;61.69
20897;BME280;10608;42.600;23.398;2024-03-23T04:13:25;84725.00;;;-138.15;62.21
20897;BME280;10608;42.600;23.398;2024-03-23T04:15:54;84709.09;;;-138.15;62.29
20897;BME280;10608;42.600;23.398;2024-03-23T04:18:20;84728.97;;;-138.15;62.30
20897;BME280;10608;42.600;23.398;2024-03-23T04:20:46;84669.34;;;-138.15;62.55
20897;BME280;10608;42.600;23.398;2024-03-23T04:23:12;84701.16;;;-138.15;62.02
20897;BME280;10608;42.600;23.398;2024-03-23T04:25:37;84736.94;;;-138.15;62.55
20897;BME280;10608;42.600;23.398;2024-03-23T04:28:03;84713.06;;;-138.15;63.11
20897;BME280;10608;42.600;23.398;2024-03-23T04:30:28;84709.09;;;-138.15;63.46
20897;BME280;10608;42.600;23.398;2024-03-23T04:32:54;84711.09;;;-138.15;63.75
20897;BME280;10608;42.600;23.398;2024-03-23T04:35:20;84730.97;;;-138.15;64.04
20897;BME280;10608;42.600;23.398;2024-03-23T04:37:47;84713.06;;;-138.15;64.10
20897;BME280;10608;42.600;23.398;2024-03-23T04:40:12;84768.75;;;-138.15;63.71
20897;BME280;10608;42.600;23.398;2024-03-23T04:42:38;84705.13;;;-138.15;63.48
20897;BME280;10608;42.600;23.398;2024-03-23T04:45:04;84709.09;;;-138.15;63.19
20897;BME280;10608;42.600;23.398;2024-03-23T04:47:31;84721.03;;;-138.15;63.09
20897;BME280;10608;42.600;23.398;2024-03-23T04:49:56;84697.16;;;-138.15;63.03
20897;BME280;10608;42.600;23.398;2024-03-23T04:52:22;84589.81;;;-138.15;61.41
20897;BME280;10608;42.600;23.398;2024-03-23T04:54:47;84470.50;;;-138.15;57.12
20897;BME280;10608;42.600;23.398;2024-03-23T04:57:13;84337.31;;;-138.15;51.25
20897;BME280;10608;42.600;23.398;2024-03-23T04:59:38;84148.44;;;-138.15;45.34
20897;BME280;10608;42.600;23.398;2024-03-23T05:02:04;83965.53;;;-138.15;40.41
20897;BME280;10608;42.600;23.398;2024-03-23T05:04:29;83822.41;;;-138.15;37.28
20897;BME280;10608;42.600;23.398;2024-03-23T05:06:54;83852.22;;;-138.15;37.82
20897;BME280;10608;42.600;23.398;2024-03-23T05:09:20;83802.53;;;-138.15;36.48
20897;BME280;10608;42.600;23.398;2024-03-23T05:11:46;83802.53;;;-138.15;36.14
20897;BME280;10608;42.600;23.398;2024-03-23T05:14:14;83725.00;;;-138.15;36.16
20897;BME280;10608;42.600;23.398;2024-03-23T05:16:40;83643.50;;;-138.15;34.93
20897;BME280;10608;42.600;23.398;2024-03-23T05:19:06;83556.03;;;-138.15;33.96
20897;BME280;10608;42.600;23.398;2024-03-23T05:21:31;83524.22;;;-138.15;33.50
20897;BME280;10608;42.600;23.398;2024-03-23T05:23:56;83468.56;;;-138.15;33.17
20897;BME280;10608;42.600;23.398;2024-03-23T05:26:22;83307.56;;;-138.15;32.15
20897;BME280;10608;42.600;23.398;2024-03-23T05:28:48;83289.69;;;-138.15;32.13
20897;BME280;10608;42.600;23.398;2024-03-23T05:31:25;83267.81;;;-138.15;31.88
20897;BME280;10608;42.600;23.398;2024-03-23T05:33:51;83198.25;;;-138.15;31.28
20897;BME280;10608;42.600;23.398;2024-03-23T05:36:17;83102.84;;;-138.15;30.54
20897;BME280;10608;42.600;23.398;2024-03-23T05:38:43;83015.41;;;-138.15;29.22
20897;BME280;10608;42.600;23.398;2024-03-23T05:41:08;82937.91;;;-138.15;29.56
20897;BME280;10608;42.600;23.398;2024-03-23T05:43:33;82711.34;;;-138.15;28.76
20897;BME280;10608;42.600;23.398;2024-03-23T05:45:59;82701.41;;;-138.15;27.71
20897;BME280;10608;42.600;23.398;2024-03-23T05:48:27;82615.94;;;-138.15;26.96
20897;BME280;10608;42.600;23.398;2024-03-23T05:50:53;82677.56;;;-138.15;27.02
20897;BME280;10608;42.600;23.398;2024-03-23T05:53:19;82685.50;;;-138.15;28.04
20897;BME280;10608;42.600;23.398;2024-03-23T05:55:48;82695.44;;;-138.15;27.27
20897;BME280;10608;42.600;23.398;2024-03-23T05:58:15;82582.16;;;-138.15;26.82
20897;BME280;10608;42.600;23.398;2024-03-23T06:00:40;82602.03;;;-138.15;27.32
20897;BME280;10608;42.600;23.398;2024-03-23T06:03:07;82558.31;;;-138.15;26.98
20897;BME280;10608;42.600;23.398;2024-03-23T06:05:32;82488.75;;;-138.15;26.66
20897;BME280;10608;42.600;23.398;2024-03-23T06:07:58;82470.88;;;-138.15;26.02
20897;BME280;10608;42.600;23.398;2024-03-23T06:10:23;82451.00;;;-138.15;26.24
20897;BME280;10608;42.600;23.398;2024-03-23T06:12:49;82220.50;;;-138.15;25.42
20897;BME280;10608;42.600;23.398;2024-03-23T06:15:17;82037.69;;;-138.15;24.85
20897;BME280;10608;42.600;23.398;2024-03-23T06:17:43;81882.69;;;-138.15;24.04
20897;BME280;10608;42.600;23.398;2024-03-23T06:20:09;81831.03;;;-138.15;23.55
20897;BME280;10608;42.600;23.398;2024-03-23T06:22:35;81560.84;;;-138.15;22.88
20897;BME280;10608;42.600;23.398;2024-03-23T06:25:01;81584.69;;;-138.15;22.45
20897;BME280;10608;42.600;23.398;2024-03-23T06:27:26;81463.47;;;-138.15;22.71
20897;BME280;10608;42.600;23.398;2024-03-23T06:29:51;81358.19;;;-138.15;22.57
20897;BME280;10608;42.600;23.398;2024-03-23T06:32:17;81111.84;;;-138.15;21.39
20897;BME280;10608;42.600;23.398;2024-03-23T06:34:43;81078.06;;;-138.15;21.07
20897;BME280;10608;42.600;23.398;2024-03-23T06:37:09;81034.38;;;-138.15;20.97
20897;BME280;10608;42.600;23.398;2024-03-23T06:39:38;80861.56;;;-138.15;20.58
20897;BME280;10608;42.600;23.398;2024-03-23T06:42:04;80794.00;;;-138.15;20.37
20897;BME280;10608;42.600;23.398;2024-03-23T06:44:29;80623.19;;;-138.15;19.96
20897;BME280;10608;42.600;23.398;2024-03-23T06:46:55;80444.44;;;-138.15;19.61
20897;BME280;10608;42.600;23.398;2024-03-23T06:49:22;80138.56;;;-138.15;18.88
20897;BME280;10608;42.600;23.398;2024-03-23T06:51:48;79993.59;;;-138.15;18.46
20897;BME280;10608;42.600;23.398;2024-03-23T06:54:13;79983.66;;;-138.15;18.54
20897;BME280;10608;42.600;23.398;2024-03-23T06:56:39;79816.84;;;-138.15;18.14
20897;BME280;10608;42.600;23.398;2024-03-23T06:59:04;79733.44;;;-138.15;17.76
20897;BME280;10608;42.600;23.398;2024-03-23T07:01:29;79602.38;;;-138.15;17.53
20897;BME280;10608;42.600;23.398;2024-03-23T07:03:55;79507.03;;;-138.15;17.32
20897;BME280;10608;42.600;23.398;2024-03-23T07:06:21;79308.47;;;-138.15;17.06
20897;BME280;10608;42.600;23.398;2024-03-23T07:08:46;79179.41;;;-138.15;16.60
20897;BME280;10608;42.600;23.398;2024-03-23T07:11:12;78792.25;;;-138.15;15.91
20897;BME280;10608;42.600;23.398;2024-03-23T07:13:37;78359.44;;;-138.15;15.68
20897;BME280;10608;42.600;23.398;2024-03-23T07:16:03;78065.66;;;-138.15;15.23
20897;BME280;10608;42.600;23.398;2024-03-23T07:18:28;77817.53;;;-138.15;14.50
20897;BME280;10608;42.600;23.398;2024-03-23T07:20:57;77664.69;;;-138.15;14.28
20897;BME280;10608;42.600;23.398;2024-03-23T07:23:23;78021.97;;;-138.15;14.14
20897;BME280;10608;42.600;23.398;2024-03-23T07:26:02;78567.91;;;-138.15;15.23
20897;BME280;10608;42.600;23.398;2024-03-23T07:28:28;78526.22;;;-138.15;14.91
20897;BME280;10608;42.600;23.398;2024-03-23T07:31:15;78359.44;;;-138.15;15.48
20897;BME280;10608;42.600;23.398;2024-03-23T07:33:48;78829.97;;;-138.15;15.53
20897;BME280;10608;42.600;23.398;2024-03-23T07:36:14;79272.72;;;-138.15;16.34
20897;BME280;10608;42.600;23.398;2024-03-23T07:38:43;78863.72;;;-138.15;16.42
20897;BME280;10608;42.600;23.398;2024-03-23T07:41:12;78536.13;;;-138.15;15.81
20897;BME280;10608;42.600;23.398;2024-03-23T07:43:38;80150.47;;;-138.15;17.67
20897;BME280;10608;42.600;23.398;2024-03-23T07:46:04;80404.69;;;-138.15;18.63
20897;BME280;10608;42.600;23.398;2024-03-23T07:48:30;79957.84;;;-138.15;18.38
20897;BME280;10608;42.600;23.398;2024-03-23T07:53:23;78561.94;;;-138.15;15.48
20897;BME280;10608;42.600;23.398;2024-03-23T07:55:54;79213.16;;;-138.15;16.84
20897;BME280;10608;42.600;23.398;2024-03-23T07:58:20;78998.72;;;-138.15;16.36
20897;BME280;10608;42.600;23.398;2024-03-23T08:00:45;79139.69;;;-138.15;16.49
20897;BME280;10608;42.600;23.398;2024-03-23T08:03:10;79783.06;;;-138.15;17.47
20897;BME280;10608;42.600;23.398;2024-03-23T08:05:36;79743.34;;;-138.15;17.83
20897;BME280;10608;42.600;23.398;2024-03-23T08:08:01;80645.03;;;-138.15;19.52
20897;BME280;10608;42.600;23.398;2024-03-23T08:10:27;80138.56;;;-138.15;18.86
20897;BME280;10608;42.600;23.398;2024-03-23T08:12:52;80090.91;;;-138.15;18.40
20897;BME280;10608;42.600;23.398;2024-03-23T08:15:17;79886.34;;;-138.15;18.08
20897;BME280;10608;42.600;23.398;2024-03-23T08:17:43;79727.47;;;-138.15;17.76
20897;BME280;10608;42.600;23.398;2024-03-23T08:35:04;78804.16;;;-138.15;16.50
20897;BME280;10608;42.600;23.398;2024-03-23T08:37:30;79926.06;;;-138.15;18.24
20897;BME280;10608;42.600;23.398;2024-03-23T08:39:55;79947.91;;;-138.15;18.52
20897;BME280;10608;42.600;23.398;2024-03-23T08:42:21;80069.06;;;-138.15;19.00
20897;BME280;10608;42.600;23.398;2024-03-23T08:44:47;80204.09;;;-138.15;19.00
20897;BME280;10608;42.600;23.398;2024-03-23T08:47:17;80269.66;;;-138.15;19.48
20897;BME280;10608;42.600;23.398;2024-03-23T08:49:44;80110.75;;;-138.15;19.14
20897;BME280;10608;42.600;23.398;2024-03-23T08:52:09;80819.84;;;-138.15;20.29
20897;BME280;10608;42.600;23.398;2024-03-23T08:54:35;80819.84;;;-138.15;20.29
20897;BME280;10608;42.600;23.398;2024-03-23T08:57:00;81244.94;;;-138.15;22.34
20897;BME280;10608;42.600;23.398;2024-03-23T08:59:26;80867.50;;;-138.15;20.79
20897;BME280;10608;42.600;23.398;2024-03-23T09:01:52;80982.72;;;-138.15;20.75
20897;BME280;10608;42.600;23.398;2024-03-23T09:04:17;80853.59;;;-138.15;20.42
20897;BME280;10608;42.600;23.398;2024-03-23T09:06:43;80962.88;;;-138.15;21.02
20897;BME280;10608;42.600;23.398;2024-03-23T09:09:08;80446.41;;;-138.15;19.74
20897;BME280;10608;42.600;23.398;2024-03-23T09:11:34;80599.34;;;-138.15;20.00
20897;BME280;10608;42.600;23.398;2024-03-23T09:13:59;80982.72;;;-138.15;20.63
20897;BME280;10608;42.600;23.398;2024-03-23T09:16:25;80615.25;;;-138.15;20.42
20897;BME280;10608;42.600;23.398;2024-03-23T09:18:51;80615.25;;;-138.15;20.13
20897;BME280;10608;42.600;23.398;2024-03-23T09:21:16;80515.94;;;-138.15;20.01
20897;BME280;10608;42.600;23.398;2024-03-23T09:23:45;80359.03;;;-138.15;19.46
20897;BME280;10608;42.600;23.398;2024-03-23T09:26:11;80760.25;;;-138.15;20.71
20897;BME280;10608;42.600;23.398;2024-03-23T09:28:36;80511.97;;;-138.15;19.92
20897;BME280;10608;42.600;23.398;2024-03-23T09:31:03;80013.44;;;-138.15;19.42
20897;BME280;10608;42.600;23.398;2024-03-23T09:33:28;79777.13;;;-138.15;18.25
20897;BME280;10608;42.600;23.398;2024-03-23T09:35:54;79963.78;;;-138.15;19.03
20897;BME280;10608;42.600;23.398;2024-03-23T09:38:21;80339.16;;;-138.15;19.50
20897;BME280;10608;42.600;23.398;2024-03-23T09:40:48;80748.31;;;-138.15;20.84
20897;BME280;10608;42.600;23.398;2024-03-23T09:43:15;80357.03;;;-138.15;20.18
20897;BME280;10608;42.600;23.398;2024-03-23T09:45:41;79882.38;;;-138.15;19.37
20897;BME280;10608;42.600;23.398;2024-03-23T09:48:09;80047.19;;;-138.15;18.61
20897;BME280;10608;42.600;23.398;2024-03-23T09:53:06;80361.00;;;-138.15;19.51
20897;BME280;10608;42.600;23.398;2024-03-23T09:55:32;80178.28;;;-138.15;19.36
20897;BME280;10608;42.600;23.398;2024-03-23T09:57:57;80331.22;;;-138.15;19.46
20897;BME280;10608;42.600;23.398;2024-03-23T10:00:23;80331.22;;;-138.15;18.98
20897;BME280;10608;42.600;23.398;2024-03-23T10:02:48;80837.72;;;-138.15;20.11
20897;BME280;10608;42.600;23.398;2024-03-23T10:05:23;80400.72;;;-138.15;20.35
20897;BME280;10608;42.600;23.398;2024-03-23T10:07:51;80476.22;;;-138.15;19.86
20897;BME280;10608;42.600;23.398;2024-03-23T10:10:17;80682.78;;;-138.15;19.92
20897;BME280;10608;42.600;23.398;2024-03-23T10:12:47;81119.78;;;-138.15;21.68
20897;BME280;10608;42.600;23.398;2024-03-23T10:15:23;81533.03;;;-138.15;21.81
20897;BME280;10608;42.600;23.398;2024-03-23T10:17:49;81580.69;;;-138.15;22.80
20897;BME280;10608;42.600;23.398;2024-03-23T10:20:24;81805.22;;;-138.15;23.27
20897;BME280;10608;42.600;23.398;2024-03-23T10:22:50;81850.91;;;-138.15;23.69
20897;BME280;10608;42.600;23.398;2024-03-23T10:25:17;82091.34;;;-138.15;24.62
20897;BME280;10608;42.600;23.398;2024-03-23T10:27:42;82021.78;;;-138.15;24.26
20897;BME280;10608;42.600;23.398;2024-03-23T10:32:34;82085.38;;;-138.15;24.80
20897;BME280;10608;42.600;23.398;2024-03-23T10:35:16;82216.53;;;-138.15;25.00
20897;BME280;10608;42.600;23.398;2024-03-23T10:37:42;82248.31;;;-138.15;25.22
20897;BME280;10608;42.600;23.398;2024-03-23T10:40:10;82347.66;;;-138.15;26.00
20897;BME280;10608;42.600;23.398;2024-03-23T10:42:37;82319.84;;;-138.15;25.99
20897;BME280;10608;42.600;23.398;2024-03-23T10:45:04;82305.94;;;-138.15;25.18
20897;BME280;10608;42.600;23.398;2024-03-23T10:47:30;82234.41;;;-138.15;24.90
20897;BME280;10608;42.600;23.398;2024-03-23T10:49:55;82248.31;;;-138.15;25.60
20897;BME280;10608;42.600;23.398;2024-03-23T10:52:21;82220.50;;;-138.15;24.73
20897;BME280;10608;42.600;23.398;2024-03-23T10:54:47;82093.31;;;-138.15;25.30
20897;BME280;10608;42.600;23.398;2024-03-23T10:57:18;81968.13;;;-138.15;25.33
20897;BME280;10608;42.600;23.398;2024-03-23T10:59:46;82045.63;;;-138.15;24.78
20897;BME280;10608;42.600;23.398;2024-03-23T11:02:21;81912.50;;;-138.15;25.04
20897;BME280;10608;42.600;23.398;2024-03-23T11:04:47;81833.03;;;-138.15;24.03
20897;BME280;10608;42.600;23.398;2024-03-23T11:07:30;81906.53;;;-138.15;23.58
20897;BME280;10608;42.600;23.398;2024-03-23T11:09:57;81938.34;;;-138.15;24.11
20897;BME280;10608;42.600;23.398;2024-03-23T11:14:53;82063.50;;;-138.15;24.12
20897;BME280;10608;42.600;23.398;2024-03-23T11:17:23;82021.78;;;-138.15;23.99
20897;BME280;10608;42.600;23.398;2024-03-23T11:22:43;82105.25;;;-138.15;24.31
20897;BME280;10608;42.600;23.398;2024-03-23T11:25:19;82047.63;;;-138.15;24.23
20897;BME280;10608;42.600;23.398;2024-03-23T11:27:49;82117.16;;;-138.15;24.17
20897;BME280;10608;42.600;23.398;2024-03-23T11:30:15;82025.75;;;-138.15;24.17
20897;BME280;10608;42.600;23.398;2024-03-23T11:32:43;82105.25;;;-138.15;23.87
20897;BME280;10608;42.600;23.398;2024-03-23T11:35:08;82081.41;;;-138.15;24.05
20897;BME280;10608;42.600;23.398;2024-03-23T11:37:38;82013.84;;;-138.15;23.88
20897;BME280;10608;42.600;23.398;2024-03-23T11:40:19;82065.50;;;-138.15;23.88
20897;BME280;10608;42.600;23.398;2024-03-23T11:42:45;82049.59;;;-138.15;23.95
20897;BME280;10608;42.600;23.398;2024-03-23T11:45:10;82033.72;;;-138.15;23.87
20897;BME280;10608;42.600;23.398;2024-03-23T11:47:36;81990.00;;;-138.15;23.47
20897;BME280;10608;42.600;23.398;2024-03-23T11:50:01;81978.06;;;-138.15;23.92
20897;BME280;10608;42.600;23.398;2024-03-23T11:52:27;81914.50;;;-138.15;23.74
20897;BME280;10608;42.600;23.398;2024-03-23T11:55:03;82011.84;;;-138.15;23.38
20897;BME280;10608;42.600;23.398;2024-03-23T11:57:29;82057.56;;;-138.15;23.80
20897;BME280;10608;42.600;23.398;2024-03-23T11:59:55;82141.00;;;-138.15;24.08
20897;BME280;10608;42.600;23.398;2024-03-23T12:02:20;82033.72;;;-138.15;23.86
20897;BME280;10608;42.600;23.398;2024-03-23T12:04:45;81964.16;;;-138.15;23.70
20897;BME280;10608;42.600;23.398;2024-03-23T12:07:21;82001.91;;;-138.15;23.75
20897;BME280;10608;42.600;23.398;2024-03-23T12:10:02;81892.63;;;-138.15;23.08
20897;BME280;10608;42.600;23.398;2024-03-23T12:12:28;81954.22;;;-138.15;23.31
20897;BME280;10608;42.600;23.398;2024-03-23T12:15:07;81858.84;;;-138.15;23.63
20897;BME280;10608;42.600;23.398;2024-03-23T12:17:34;81934.38;;;-138.15;23.35
20897;BME280;10608;42.600;23.398;2024-03-23T12:20:00;81950.25;;;-138.15;23.74
20897;BME280;10608;42.600;23.398;2024-03-23T12:22:26;81894.63;;;-138.15;23.26
20897;BME280;10608;42.600;23.398;2024-03-23T12:24:52;81860.84;;;-138.15;23.30
20897;BME280;10608;42.600;23.398;2024-03-23T12:27:17;81801.25;;;-138.15;23.57
20897;BME280;10608;42.600;23.398;2024-03-23T12:29:43;81910.53;;;-138.15;23.18
20897;BME280;10608;42.600;23.398;2024-03-23T12:32:11;81970.13;;;-138.15;22.88
20897;BME280;10608;42.600;23.398;2024-03-23T12:34:37;81926.41;;;-138.15;23.36
20897;BME280;10608;42.600;23.398;2024-03-23T12:37:02;81914.50;;;-138.15;22.69
20897;BME280;10608;42.600;23.398;2024-03-23T12:39:28;81888.66;;;-138.15;23.15
20897;BME280;10608;42.600;23.398;2024-03-23T12:41:54;81970.13;;;-138.15;22.59
20897;BME280;10608;42.600;23.398;2024-03-23T12:44:19;81874.75;;;-138.15;22.75
20897;BME280;10608;42.600;23.398;2024-03-23T12:46:45;81908.53;;;-138.15;23.00
20897;BME280;10608;42.600;23.398;2024-03-23T12:49:11;81910.53;;;-138.15;23.34
20897;BME280;10608;42.600;23.398;2024-03-23T12:51:36;81952.25;;;-138.15;22.97
20897;BME280;10608;42.600;23.398;2024-03-23T12:54:02;81944.28;;;-138.15;23.07
20897;BME280;10608;42.600;23.398;2024-03-23T12:56:28;81914.50;;;-138.15;22.77
20897;BME280;10608;42.600;23.398;2024-03-23T12:58:56;81846.94;;;-138.15;22.80
20897;BME280;10608;42.600;23.398;2024-03-23T13:01:25;81803.22;;;-138.15;22.94
20897;BME280;10608;42.600;23.398;2024-03-23T13:03:51;81747.59;;;-138.15;22.79
20897;BME280;10608;42.600;23.398;2024-03-23T13:06:17;81940.31;;;-138.15;22.99
20897;BME280;10608;42.600;23.398;2024-03-23T13:08:46;81858.84;;;-138.15;22.85
20897;BME280;10608;42.600;23.398;2024-03-23T13:11:12;81833.03;;;-138.15;22.95
20897;BME280;10608;42.600;23.398;2024-03-23T13:13:39;81854.88;;;-138.15;22.95
20897;BME280;10608;42.600;23.398;2024-03-23T13:16:05;81862.84;;;-138.15;22.73
20897;BME280;10608;42.600;23.398;2024-03-23T13:18:31;81848.94;;;-138.15;22.57
20897;BME280;10608;42.600;23.398;2024-03-23T13:20:57;81817.13;;;-138.15;22.42
20897;BME280;10608;42.600;23.398;2024-03-23T13:23:22;81918.47;;;-138.15;21.97
20897;BME280;10608;42.600;23.398;2024-03-23T13:25:51;81821.09;;;-138.15;22.82
20897;BME280;10608;42.600;23.398;2024-03-23T13:28:21;81819.13;;;-138.15;22.17
20897;BME280;10608;42.600;23.398;2024-03-23T13:30:54;81809.19;;;-138.15;21.70
20897;BME280;10608;42.600;23.398;2024-03-23T13:33:20;81761.50;;;-138.15;22.45
20897;BME280;10608;42.600;23.398;2024-03-23T13:35:52;81731.69;;;-138.15;22.57
20897;BME280;10608;42.600;23.398;2024-03-23T13:38:18;81705.88;;;-138.15;21.99
20897;BME280;10608;42.600;23.398;2024-03-23T13:40:58;81640.31;;;-138.15;21.87
20897;BME280;10608;42.600;23.398;2024-03-23T13:43:25;81674.06;;;-138.15;21.07
20897;BME280;10608;42.600;23.398;2024-03-23T13:45:55;81634.34;;;-138.15;21.07
20897;BME280;10608;42.600;23.398;2024-03-23T13:48:22;81638.31;;;-138.15;20.29